Terminal Aerodrome Forecast
Issued by NWS

Current Version | Previous Version | Graphics & Text | Print | Product List | Glossary On
Versions: 1 2 3 4 5 6 7 8 9 10 11 12 13
142
FTUS41 KILN 221725
TAFLCK
TAF
KLCK 221725Z 2218/2318 36010KT P6SM BKN080
     FM230200 01003KT P6SM FEW060
     FM231700 36005KT P6SM SCT040=

USA.gov is the U.S. government's official web portal to all federal, state and local government web resources and services.